Portada
METAR-TAF:

METAR-TAF

Aeroports :

Phillip Goldston

Belize City, Belize

latitud: 17-32N, longitud: 088-18W, altitud: 5 m

Observació

L'informe es va fer fa 43 minuts, a les 15:00 UTC
Vent calma
Temperatura 29°C
Humitat 79%
Pressió 1012 hPa
Visibilitat 10 km o més
Núvols disperses a una alçada de 2400 ft

METAR: MZBZ 011500Z 00000KT 9999 SCT024 29/25 A2990 Q1012 NOSIG

Hora: 09:43 (15:43 UTC)

Pronòstic

L'informe es va fer fa 4 hores i 43 minuts, a les 11:00 UTC
Pronòstic vàlid del 01 a les 12 UTC al 02 a les 12 UTC
Vent 3 kt amb direcció variable
Visibilitat 10 km o més
Núvols disperses a una alçada de 2200 ft
Evolucionant progressivament
l' 01 a les 14 UTC al 01 a les 16 UTC
Vent 7 kt del Est

TAF: MZBZ 011100Z 0112/0212 VRB03KT 9999 SCT022 BECMG 0114/0116 10007KT

Observacions i pronòstics meteorològics de més de 4000 aeroports (METAR i TAF).

Les estacions disponibles són els punts grocs i vermells al mapa.

Posi el ratolí al punt desitjat per veure el nom de l'estació.

Feu clic per veure les observacions i els pronòstics meteorològics.

Per canviar el mapa: feu clic els botons verds amb una creu de color negre per apropar; al botó verd amb un guió per allunyar la imatge; o en les fletxes verdes per a mapes adjacents.


METAR-TAF: